Lauderdale, Minnesota
Current Conditions -  °F | °C
As of 12:31 PM on Sunday 21 Dec 2014 (Local Time) from KSTP Reporting Station
Light Snow Light Snow  
Wind Chill: 26°   Ceiling: 400
Heat Index: 33°   Visibility: 1.7mi
Dew Point: 33°   Wind: 8mph
Humidity: 100%   Direction: 150°SSE
Pressure: 29.82"   Gusts: NA
Location:  45.0123°N, 93.1559°W
Report Text: KSTP 211831Z 15007KT 1 3/4SM -SN BR OVC004 01/01 A2982 RMK AO2 P0002 T00060006
Loading
Personal Weather Stations






























Interactive Weather Map New forecast layout! Learn more

10-Day Weather Forecast

Advertisements
Track Severe Weather on mobile